Pinyon Pines, California
Current Conditions -  °F | °C
As of 7:53 PM on Friday 24 Oct 2014 (Local Time) from KPSP Reporting Station
Clear Clear  
Wind Chill: 84°   Ceiling: Unl
Heat Index: 84°   Visibility: 10mi
Dew Point: 47°   Wind: 0mph
Humidity: 27%   Direction: NA
Pressure: 29.94"   Gusts: NA
Location:  33.6134°N, 116.54°W
Report Text: KPSP 250253Z 00000KT 10SM CLR 29/08 A2994 RMK AO2 SLP134 T02890083 53010
Loading
Personal Weather Stations






























Interactive Weather Map
Tropical Storm Tracking
New forecast layout! Learn more

10-Day Weather Forecast

Advertisements
Track Severe Weather on mobile